FDB1290 HKMO-OMDB
Flight info
| Callsign | FDB1290 |
|---|---|
| Flight time | 4h 58m |
| Altitude | 33000 |
| Route | ESRIN2A AVUDU UL431 RAGGS UL437 EVAKA/N0465F350 UL437 VEDET B400 DAXAM Y414 DEDSO R401 VELIK/N0461F360 R401 MUSAP/N0456F350 R401 PEDOG Q308 KIPOK/N0453F340 Q568 IMPED |
| Aircraft | B38M/M-SDE1E2E3FGHIJ1LM3ORVWXYZ/HB1 |
Departure
| Time | 2026-04-20 13:49 |
|---|---|
| Airport | Moi International Airport (HKMO) |
Arrival
| Time | 2026-04-20 18:47 |
|---|---|
| Airport | Dubai International Airport (OMDB) |
| Time | Latitude | Longitude | Altitude | Speed | Heading |
|---|---|---|---|---|---|
| 2026-04-20 13:02 | -4.03265 | 39.60171 | 211 ft | 0 kts | 119° |
| 2026-04-20 13:38 | -4.03260 | 39.60162 | 207 ft | 4 kts | 123° |
| 2026-04-20 13:38 | -4.03250 | 39.60144 | 216 ft | 3 kts | 108° |
| 2026-04-20 13:38 | -4.03248 | 39.60124 | 215 ft | 2 kts | 107° |
| 2026-04-20 13:38 | -4.03241 | 39.60105 | 209 ft | 4 kts | 140° |
| 2026-04-20 13:39 | -4.03222 | 39.60098 | 210 ft | 4 kts | 181° |
| 2026-04-20 13:39 | -4.03200 | 39.60108 | 213 ft | 4 kts | 221° |
| 2026-04-20 13:39 | -4.03179 | 39.60123 | 210 ft | 4 kts | 204° |
| 2026-04-20 13:39 | -4.03155 | 39.60136 | 219 ft | 4 kts | 212° |
| 2026-04-20 13:40 | -4.03142 | 39.60144 | 211 ft | 1 kts | 209° |
| 2026-04-20 13:42 | -4.03143 | 39.60144 | 207 ft | 0 kts | 199° |
| 2026-04-20 13:43 | -4.03145 | 39.60150 | 207 ft | 1 kts | 95° |
| 2026-04-20 13:43 | -4.03122 | 39.60161 | 211 ft | 8 kts | 20° |
| 2026-04-20 13:43 | -4.03039 | 39.60202 | 211 ft | 16 kts | 30° |
| 2026-04-20 13:43 | -4.02946 | 39.60215 | 211 ft | 13 kts | 321° |
| 2026-04-20 13:44 | -4.02900 | 39.60140 | 216 ft | 13 kts | 298° |
| 2026-04-20 13:44 | -4.02854 | 39.60056 | 212 ft | 14 kts | 298° |
| 2026-04-20 13:44 | -4.02785 | 39.60020 | 207 ft | 13 kts | 31° |
| 2026-04-20 13:44 | -4.02703 | 39.60066 | 216 ft | 15 kts | 29° |
| 2026-04-20 13:45 | -4.02589 | 39.60130 | 216 ft | 23 kts | 29° |
| 2026-04-20 13:45 | -4.02448 | 39.60208 | 214 ft | 23 kts | 29° |
| 2026-04-20 13:45 | -4.02308 | 39.60286 | 207 ft | 23 kts | 29° |
| 2026-04-20 13:45 | -4.02165 | 39.60367 | 207 ft | 24 kts | 29° |
| 2026-04-20 13:46 | -4.02018 | 39.60450 | 207 ft | 25 kts | 29° |
| 2026-04-20 13:46 | -4.01866 | 39.60535 | 210 ft | 25 kts | 29° |
| 2026-04-20 13:46 | -4.01711 | 39.60622 | 216 ft | 26 kts | 29° |
| 2026-04-20 13:46 | -4.01564 | 39.60704 | 215 ft | 21 kts | 29° |
| 2026-04-20 13:47 | -4.01433 | 39.60735 | 207 ft | 19 kts | 351° |
| 2026-04-20 13:47 | -4.01345 | 39.60683 | 211 ft | 11 kts | 300° |
| 2026-04-20 13:47 | -4.01342 | 39.60630 | 212 ft | 7 kts | 226° |
| 2026-04-20 13:47 | -4.01361 | 39.60616 | 210 ft | 0 kts | 209° |
| 2026-04-20 13:48 | -4.01363 | 39.60615 | 210 ft | 4 kts | 209° |
| 2026-04-20 13:48 | -4.01608 | 39.60479 | 211 ft | 77 kts | 208° |
| 2026-04-20 13:48 | -4.02273 | 39.60106 | 216 ft | 140 kts | 209° |
| 2026-04-20 13:48 | -4.03261 | 39.59561 | 387 ft | 172 kts | 208° |
| 2026-04-20 13:49 | -4.04289 | 39.58956 | 1095 ft | 175 kts | 210° |
| 2026-04-20 13:49 | -4.05348 | 39.58334 | 1771 ft | 182 kts | 207° |
| 2026-04-20 13:49 | -4.06533 | 39.57772 | 2329 ft | 192 kts | 192° |
| 2026-04-20 13:49 | -4.07891 | 39.57919 | 2691 ft | 216 kts | 152° |
| 2026-04-20 13:50 | -4.08918 | 39.59055 | 3308 ft | 233 kts | 112° |
| 2026-04-20 13:50 | -4.08965 | 39.60706 | 3970 ft | 248 kts | 71° |
| 2026-04-20 13:50 | -4.08087 | 39.62158 | 5070 ft | 242 kts | 57° |
| 2026-04-20 13:50 | -4.07122 | 39.63537 | 6018 ft | 244 kts | 58° |
| 2026-04-20 13:51 | -4.06106 | 39.64974 | 6552 ft | 262 kts | 56° |
| 2026-04-20 13:51 | -4.05011 | 39.66475 | 7275 ft | 266 kts | 57° |
| 2026-04-20 13:51 | -4.03947 | 39.68000 | 8134 ft | 269 kts | 58° |
| 2026-04-20 13:51 | -4.02874 | 39.69580 | 8751 ft | 282 kts | 58° |
| 2026-04-20 13:52 | -4.01793 | 39.71248 | 9499 ft | 285 kts | 59° |
| 2026-04-20 13:52 | -4.00728 | 39.72941 | 10225 ft | 292 kts | 60° |
| 2026-04-20 13:52 | -3.99622 | 39.74735 | 10557 ft | 312 kts | 60° |
| 2026-04-20 13:52 | -3.98462 | 39.76646 | 10880 ft | 329 kts | 60° |
| 2026-04-20 13:53 | -3.97271 | 39.78605 | 11361 ft | 339 kts | 60° |
| 2026-04-20 13:53 | -3.96041 | 39.80621 | 12116 ft | 340 kts | 60° |
| 2026-04-20 13:53 | -3.94649 | 39.82544 | 12746 ft | 346 kts | 45° |
| 2026-04-20 13:53 | -3.92792 | 39.84092 | 13436 ft | 349 kts | 41° |
| 2026-04-20 13:54 | -3.90892 | 39.85642 | 14000 ft | 353 kts | 41° |
| 2026-04-20 13:54 | -3.88975 | 39.87193 | 14563 ft | 357 kts | 41° |
| 2026-04-20 13:54 | -3.87032 | 39.88756 | 15122 ft | 359 kts | 40° |
| 2026-04-20 13:54 | -3.85077 | 39.90323 | 15661 ft | 362 kts | 40° |
| 2026-04-20 13:55 | -3.83105 | 39.91905 | 16193 ft | 365 kts | 40° |
| 2026-04-20 13:55 | -3.81115 | 39.93499 | 16720 ft | 368 kts | 40° |
| 2026-04-20 13:55 | -3.79101 | 39.95112 | 17234 ft | 371 kts | 40° |
| 2026-04-20 13:55 | -3.77080 | 39.96732 | 17759 ft | 373 kts | 40° |
| 2026-04-20 13:56 | -3.75042 | 39.98364 | 18232 ft | 376 kts | 40° |
| 2026-04-20 13:56 | -3.72993 | 40.00005 | 18647 ft | 379 kts | 40° |
| 2026-04-20 13:56 | -3.70925 | 40.01661 | 19057 ft | 382 kts | 40° |
| 2026-04-20 13:56 | -3.69545 | 40.02767 | 19326 ft | 383 kts | 40° |
| 2026-04-20 13:57 | -3.67458 | 40.04439 | 19728 ft | 386 kts | 40° |
| 2026-04-20 13:57 | -3.65364 | 40.06116 | 20140 ft | 388 kts | 40° |
| 2026-04-20 13:57 | -3.63250 | 40.07808 | 20525 ft | 390 kts | 40° |
| 2026-04-20 13:57 | -3.61121 | 40.09513 | 20908 ft | 393 kts | 40° |
| 2026-04-20 13:58 | -3.58980 | 40.11227 | 21290 ft | 395 kts | 40° |
| 2026-04-20 13:58 | -3.56826 | 40.12952 | 21670 ft | 398 kts | 40° |
| 2026-04-20 13:58 | -3.54661 | 40.14686 | 22041 ft | 400 kts | 40° |
| 2026-04-20 13:58 | -3.52481 | 40.16431 | 22392 ft | 403 kts | 40° |
| 2026-04-20 13:59 | -3.50288 | 40.18185 | 22769 ft | 405 kts | 40° |
| 2026-04-20 13:59 | -3.48081 | 40.19952 | 23126 ft | 407 kts | 40° |
| 2026-04-20 13:59 | -3.45877 | 40.21721 | 23484 ft | 409 kts | 40° |
| 2026-04-20 13:59 | -3.43646 | 40.23504 | 23755 ft | 411 kts | 40° |
| 2026-04-20 14:00 | -3.41398 | 40.25301 | 24065 ft | 413 kts | 40° |
| 2026-04-20 14:00 | -3.39178 | 40.27078 | 24342 ft | 415 kts | 40° |
| 2026-04-20 14:00 | -3.36892 | 40.28907 | 24658 ft | 416 kts | 40° |
| 2026-04-20 14:00 | -3.34622 | 40.30723 | 24927 ft | 418 kts | 40° |
| 2026-04-20 14:01 | -3.32348 | 40.32542 | 25232 ft | 420 kts | 40° |
| 2026-04-20 14:01 | -3.30060 | 40.34374 | 25519 ft | 422 kts | 40° |
| 2026-04-20 14:01 | -3.27758 | 40.36215 | 25803 ft | 424 kts | 40° |
| 2026-04-20 14:01 | -3.25488 | 40.38031 | 26074 ft | 426 kts | 40° |
| 2026-04-20 14:02 | -3.23167 | 40.39887 | 26359 ft | 427 kts | 40° |
| 2026-04-20 14:02 | -3.20842 | 40.41748 | 26624 ft | 429 kts | 40° |
| 2026-04-20 14:02 | -3.18510 | 40.43612 | 26900 ft | 431 kts | 40° |
| 2026-04-20 14:02 | -3.16164 | 40.45488 | 27166 ft | 433 kts | 40° |
| 2026-04-20 14:03 | -3.13798 | 40.47380 | 27438 ft | 434 kts | 40° |
| 2026-04-20 14:03 | -3.11428 | 40.49276 | 27688 ft | 436 kts | 40° |
| 2026-04-20 14:03 | -3.09051 | 40.51176 | 27952 ft | 438 kts | 40° |
| 2026-04-20 14:03 | -3.06669 | 40.53081 | 28204 ft | 440 kts | 40° |
| 2026-04-20 14:04 | -3.04271 | 40.54998 | 28456 ft | 442 kts | 40° |
| 2026-04-20 14:04 | -3.01869 | 40.56918 | 28708 ft | 443 kts | 39° |
| 2026-04-20 14:04 | -2.99455 | 40.58848 | 28954 ft | 445 kts | 39° |
| 2026-04-20 14:04 | -2.97028 | 40.60788 | 29200 ft | 447 kts | 39° |
| 2026-04-20 14:05 | -2.94594 | 40.62734 | 29431 ft | 448 kts | 39° |
| 2026-04-20 14:05 | -2.92156 | 40.64682 | 29665 ft | 450 kts | 39° |
| 2026-04-20 14:05 | -2.89706 | 40.66641 | 29889 ft | 452 kts | 39° |
| 2026-04-20 14:05 | -2.87248 | 40.68605 | 30090 ft | 453 kts | 39° |
| 2026-04-20 14:06 | -2.84816 | 40.70610 | 30281 ft | 454 kts | 44° |
| 2026-04-20 14:06 | -2.82542 | 40.72809 | 30475 ft | 455 kts | 45° |
| 2026-04-20 14:06 | -2.80247 | 40.75000 | 30647 ft | 456 kts | 44° |
| 2026-04-20 14:06 | -2.77941 | 40.77179 | 30839 ft | 458 kts | 44° |
| 2026-04-20 14:07 | -2.75615 | 40.79370 | 31019 ft | 459 kts | 44° |
| 2026-04-20 14:07 | -2.73280 | 40.81564 | 31200 ft | 461 kts | 44° |
| 2026-04-20 14:07 | -2.70945 | 40.83758 | 31376 ft | 462 kts | 44° |
| 2026-04-20 14:07 | -2.68636 | 40.85928 | 31548 ft | 463 kts | 44° |
| 2026-04-20 14:08 | -2.66282 | 40.88138 | 31729 ft | 464 kts | 44° |
| 2026-04-20 14:08 | -2.63928 | 40.90350 | 31887 ft | 466 kts | 44° |
| 2026-04-20 14:08 | -2.61558 | 40.92576 | 32065 ft | 467 kts | 44° |
| 2026-04-20 14:08 | -2.59183 | 40.94808 | 32215 ft | 468 kts | 44° |
| 2026-04-20 14:09 | -2.56810 | 40.97035 | 32420 ft | 469 kts | 44° |
| 2026-04-20 14:09 | -2.54433 | 40.99269 | 32613 ft | 469 kts | 44° |
| 2026-04-20 14:09 | -2.52053 | 41.01503 | 32828 ft | 469 kts | 43° |
| 2026-04-20 14:09 | -2.49685 | 41.03727 | 33059 ft | 468 kts | 43° |
| 2026-04-20 14:10 | -2.47312 | 41.05955 | 33253 ft | 468 kts | 43° |
| 2026-04-20 14:10 | -2.44941 | 41.08187 | 33491 ft | 468 kts | 44° |
| 2026-04-20 14:10 | -2.42569 | 41.10422 | 33667 ft | 468 kts | 43° |
| 2026-04-20 14:10 | -2.40220 | 41.12621 | 33862 ft | 468 kts | 43° |
| 2026-04-20 14:11 | -2.37846 | 41.14844 | 34059 ft | 467 kts | 43° |
| 2026-04-20 14:11 | -2.35474 | 41.17071 | 34260 ft | 467 kts | 43° |
| 2026-04-20 14:11 | -2.33109 | 41.19291 | 34458 ft | 466 kts | 43° |
| 2026-04-20 14:11 | -2.30752 | 41.21503 | 34661 ft | 465 kts | 43° |
| 2026-04-20 14:12 | -2.28397 | 41.23716 | 34837 ft | 465 kts | 43° |
| 2026-04-20 14:12 | -2.26042 | 41.25929 | 34866 ft | 463 kts | 43° |
| 2026-04-20 14:12 | -2.21370 | 41.30311 | 34873 ft | 460 kts | 43° |
| 2026-04-20 14:13 | -2.16685 | 41.34705 | 34870 ft | 461 kts | 43° |
| 2026-04-20 14:13 | -2.12027 | 41.39077 | 34874 ft | 459 kts | 43° |
| 2026-04-20 14:14 | -2.07357 | 41.43459 | 34875 ft | 460 kts | 43° |
| 2026-04-20 14:14 | -2.02707 | 41.47783 | 34875 ft | 460 kts | 43° |
| 2026-04-20 14:15 | -1.98014 | 41.52125 | 34867 ft | 459 kts | 43° |
| 2026-04-20 14:15 | -1.93337 | 41.56454 | 34867 ft | 458 kts | 43° |
| 2026-04-20 14:16 | -1.88664 | 41.60777 | 34868 ft | 457 kts | 43° |
| 2026-04-20 14:16 | -1.83997 | 41.65095 | 34868 ft | 457 kts | 43° |
| 2026-04-20 14:17 | -1.79329 | 41.69420 | 34870 ft | 457 kts | 44° |
| 2026-04-20 14:17 | -1.75118 | 41.74161 | 34877 ft | 457 kts | 49° |
| 2026-04-20 14:18 | -1.70981 | 41.78979 | 34873 ft | 457 kts | 50° |
| 2026-04-20 14:18 | -1.66849 | 41.83798 | 34870 ft | 456 kts | 50° |
| 2026-04-20 14:19 | -1.62721 | 41.88604 | 34871 ft | 455 kts | 50° |
| 2026-04-20 14:19 | -1.58628 | 41.93376 | 34868 ft | 455 kts | 50° |
| 2026-04-20 14:20 | -1.54505 | 41.98183 | 34871 ft | 455 kts | 50° |
| 2026-04-20 14:20 | -1.50381 | 42.02990 | 34871 ft | 456 kts | 50° |
| 2026-04-20 14:21 | -1.46254 | 42.07801 | 34867 ft | 456 kts | 50° |
| 2026-04-20 14:21 | -1.42131 | 42.12607 | 34867 ft | 456 kts | 50° |
| 2026-04-20 14:22 | -1.38011 | 42.17409 | 34867 ft | 454 kts | 50° |
| 2026-04-20 14:22 | -1.33900 | 42.22200 | 34862 ft | 454 kts | 50° |
| 2026-04-20 14:23 | -1.29780 | 42.27002 | 34864 ft | 454 kts | 50° |
| 2026-04-20 14:23 | -1.25673 | 42.31788 | 34867 ft | 454 kts | 50° |
| 2026-04-20 14:24 | -1.21564 | 42.36576 | 34862 ft | 454 kts | 50° |
| 2026-04-20 14:24 | -1.17475 | 42.41341 | 34862 ft | 454 kts | 50° |
| 2026-04-20 14:25 | -1.13364 | 42.46130 | 34861 ft | 454 kts | 50° |
| 2026-04-20 14:25 | -1.09261 | 42.50911 | 34862 ft | 453 kts | 49° |
| 2026-04-20 14:26 | -1.05160 | 42.55689 | 34862 ft | 453 kts | 49° |
| 2026-04-20 14:26 | -1.01058 | 42.60468 | 34861 ft | 453 kts | 49° |
| 2026-04-20 14:27 | -0.96961 | 42.65241 | 34862 ft | 453 kts | 49° |
| 2026-04-20 14:27 | -0.92865 | 42.70012 | 34862 ft | 453 kts | 49° |
| 2026-04-20 14:28 | -0.88764 | 42.74789 | 34860 ft | 453 kts | 49° |
| 2026-04-20 14:28 | -0.84674 | 42.79553 | 34859 ft | 453 kts | 49° |
| 2026-04-20 14:29 | -0.80580 | 42.84322 | 34861 ft | 452 kts | 49° |
| 2026-04-20 14:29 | -0.76491 | 42.89084 | 34859 ft | 452 kts | 49° |
| 2026-04-20 14:30 | -0.72397 | 42.93853 | 34859 ft | 452 kts | 49° |
| 2026-04-20 14:30 | -0.68303 | 42.98621 | 34859 ft | 452 kts | 49° |
| 2026-04-20 14:31 | -0.64210 | 43.03388 | 34859 ft | 452 kts | 49° |
| 2026-04-20 14:31 | -0.60146 | 43.08121 | 34859 ft | 452 kts | 49° |
| 2026-04-20 14:32 | -0.56048 | 43.12893 | 34860 ft | 452 kts | 49° |
| 2026-04-20 14:32 | -0.51951 | 43.17664 | 34857 ft | 453 kts | 49° |
| 2026-04-20 14:33 | -0.47849 | 43.22441 | 34856 ft | 452 kts | 49° |
| 2026-04-20 14:33 | -0.43757 | 43.27206 | 34854 ft | 453 kts | 49° |
| 2026-04-20 14:34 | -0.39646 | 43.31994 | 34854 ft | 453 kts | 49° |
| 2026-04-20 14:34 | -0.35545 | 43.36769 | 34853 ft | 453 kts | 49° |
| 2026-04-20 14:35 | -0.31440 | 43.41548 | 34853 ft | 453 kts | 49° |
| 2026-04-20 14:35 | -0.27367 | 43.46291 | 34854 ft | 452 kts | 49° |
| 2026-04-20 14:36 | -0.23270 | 43.51063 | 34854 ft | 452 kts | 49° |
| 2026-04-20 14:36 | -0.19164 | 43.55843 | 34850 ft | 452 kts | 49° |
| 2026-04-20 14:37 | -0.15077 | 43.60601 | 34851 ft | 452 kts | 49° |
| 2026-04-20 14:37 | -0.10971 | 43.65382 | 34852 ft | 452 kts | 49° |
| 2026-04-20 14:38 | -0.06876 | 43.70151 | 34851 ft | 452 kts | 49° |
| 2026-04-20 14:38 | -0.02782 | 43.74919 | 34851 ft | 452 kts | 49° |
| 2026-04-20 14:39 | 0.01309 | 43.79681 | 34846 ft | 452 kts | 49° |
| 2026-04-20 14:39 | 0.05388 | 43.84431 | 34851 ft | 453 kts | 49° |
| 2026-04-20 14:40 | 0.09484 | 43.89200 | 34850 ft | 452 kts | 49° |
| 2026-04-20 14:40 | 0.13585 | 43.93976 | 34852 ft | 452 kts | 49° |
| 2026-04-20 14:41 | 0.17672 | 43.98734 | 34851 ft | 452 kts | 49° |
| 2026-04-20 14:41 | 0.21770 | 44.03506 | 34851 ft | 452 kts | 49° |
| 2026-04-20 14:42 | 0.25859 | 44.08267 | 34850 ft | 451 kts | 49° |
| 2026-04-20 14:42 | 0.29947 | 44.13027 | 34851 ft | 451 kts | 49° |
| 2026-04-20 14:43 | 0.33631 | 44.16687 | 34830 ft | 448 kts | 33° |
| 2026-04-20 14:43 | 0.38789 | 44.20207 | 34826 ft | 450 kts | 34° |
| 2026-04-20 14:44 | 0.43976 | 44.23727 | 34846 ft | 451 kts | 34° |
| 2026-04-20 14:44 | 0.49174 | 44.27231 | 34845 ft | 450 kts | 34° |
| 2026-04-20 14:45 | 0.54372 | 44.30733 | 34845 ft | 450 kts | 34° |
| 2026-04-20 14:45 | 0.59554 | 44.34223 | 34845 ft | 449 kts | 34° |
| 2026-04-20 14:46 | 0.64704 | 44.37692 | 34845 ft | 449 kts | 34° |
| 2026-04-20 14:46 | 0.69894 | 44.41189 | 34844 ft | 449 kts | 34° |
| 2026-04-20 14:47 | 0.75075 | 44.44679 | 34844 ft | 449 kts | 34° |
| 2026-04-20 14:48 | 0.82849 | 44.49916 | 34840 ft | 449 kts | 34° |
| 2026-04-20 14:48 | 0.88027 | 44.53405 | 34839 ft | 449 kts | 34° |
| 2026-04-20 14:49 | 0.93207 | 44.56895 | 34840 ft | 449 kts | 34° |
| 2026-04-20 14:49 | 0.98379 | 44.60379 | 34840 ft | 449 kts | 34° |
| 2026-04-20 14:50 | 1.03526 | 44.63847 | 34841 ft | 449 kts | 34° |
| 2026-04-20 14:50 | 1.08699 | 44.67333 | 34840 ft | 449 kts | 34° |
| 2026-04-20 14:51 | 1.13876 | 44.70821 | 34839 ft | 448 kts | 34° |
| 2026-04-20 14:51 | 1.19035 | 44.74298 | 34841 ft | 448 kts | 34° |
| 2026-04-20 14:52 | 1.24209 | 44.77785 | 34838 ft | 448 kts | 34° |
| 2026-04-20 14:52 | 1.29377 | 44.81268 | 34840 ft | 448 kts | 34° |
| 2026-04-20 14:53 | 1.34541 | 44.84748 | 34838 ft | 448 kts | 34° |
| 2026-04-20 14:53 | 1.39703 | 44.88228 | 34840 ft | 448 kts | 34° |
| 2026-04-20 14:54 | 1.44867 | 44.91708 | 34843 ft | 448 kts | 34° |
| 2026-04-20 14:54 | 1.50034 | 44.95191 | 34843 ft | 448 kts | 34° |
| 2026-04-20 14:55 | 1.55209 | 44.98680 | 34845 ft | 448 kts | 34° |
| 2026-04-20 14:55 | 1.60366 | 45.02156 | 34843 ft | 448 kts | 34° |
| 2026-04-20 14:56 | 1.65532 | 45.05639 | 34840 ft | 448 kts | 34° |
| 2026-04-20 14:56 | 1.70698 | 45.09122 | 34843 ft | 448 kts | 34° |
| 2026-04-20 14:57 | 1.75841 | 45.12590 | 34840 ft | 448 kts | 34° |
| 2026-04-20 14:57 | 1.81034 | 45.16092 | 34837 ft | 448 kts | 34° |
| 2026-04-20 14:58 | 1.86172 | 45.19557 | 34833 ft | 448 kts | 34° |
| 2026-04-20 14:58 | 1.91340 | 45.23042 | 34833 ft | 448 kts | 34° |
| 2026-04-20 14:59 | 1.96498 | 45.26521 | 34829 ft | 448 kts | 34° |
| 2026-04-20 14:59 | 2.01721 | 45.29904 | 34830 ft | 448 kts | 30° |
| 2026-04-20 15:00 | 2.07087 | 45.33076 | 34827 ft | 448 kts | 31° |
| 2026-04-20 15:00 | 2.12437 | 45.36274 | 34850 ft | 448 kts | 31° |
| 2026-04-20 15:01 | 2.17784 | 45.39474 | 34855 ft | 448 kts | 31° |
| 2026-04-20 15:01 | 2.23123 | 45.42671 | 34852 ft | 448 kts | 31° |
| 2026-04-20 15:02 | 2.28481 | 45.45878 | 34852 ft | 448 kts | 31° |
| 2026-04-20 15:02 | 2.33798 | 45.49062 | 34852 ft | 448 kts | 31° |
| 2026-04-20 15:03 | 2.39186 | 45.52287 | 34851 ft | 448 kts | 31° |
| 2026-04-20 15:03 | 2.44499 | 45.55469 | 34850 ft | 448 kts | 31° |
| 2026-04-20 15:04 | 2.49851 | 45.58673 | 34851 ft | 449 kts | 31° |
| 2026-04-20 15:04 | 2.55215 | 45.61887 | 34854 ft | 449 kts | 31° |
| 2026-04-20 15:05 | 2.60577 | 45.65099 | 34853 ft | 449 kts | 31° |
| 2026-04-20 15:05 | 2.65927 | 45.68303 | 34850 ft | 449 kts | 31° |
| 2026-04-20 15:06 | 2.71285 | 45.71514 | 34849 ft | 449 kts | 31° |
| 2026-04-20 15:06 | 2.76645 | 45.74726 | 34860 ft | 449 kts | 30° |
| 2026-04-20 15:07 | 2.82020 | 45.77959 | 34850 ft | 450 kts | 30° |
| 2026-04-20 15:07 | 2.87391 | 45.81166 | 34852 ft | 450 kts | 30° |
| 2026-04-20 15:08 | 2.92760 | 45.84383 | 34851 ft | 450 kts | 31° |
| 2026-04-20 15:08 | 2.98137 | 45.87607 | 34857 ft | 450 kts | 31° |
| 2026-04-20 15:09 | 3.03481 | 45.90810 | 34858 ft | 450 kts | 31° |
| 2026-04-20 15:09 | 3.08849 | 45.94029 | 34856 ft | 450 kts | 31° |
| 2026-04-20 15:10 | 3.14223 | 45.97251 | 34855 ft | 450 kts | 31° |
| 2026-04-20 15:10 | 3.19593 | 46.00471 | 34854 ft | 450 kts | 30° |
| 2026-04-20 15:11 | 3.24978 | 46.03702 | 34855 ft | 450 kts | 30° |
| 2026-04-20 15:11 | 3.30341 | 46.06918 | 34853 ft | 450 kts | 30° |
| 2026-04-20 15:12 | 3.35719 | 46.10155 | 34860 ft | 451 kts | 30° |
| 2026-04-20 15:12 | 3.41111 | 46.13382 | 34853 ft | 451 kts | 30° |
| 2026-04-20 15:13 | 3.46503 | 46.16616 | 34852 ft | 451 kts | 30° |
| 2026-04-20 15:13 | 3.51875 | 46.19841 | 34855 ft | 450 kts | 30° |
| 2026-04-20 15:14 | 3.57250 | 46.23067 | 34854 ft | 450 kts | 30° |
| 2026-04-20 15:14 | 3.62615 | 46.26288 | 34853 ft | 450 kts | 30° |
| 2026-04-20 15:15 | 3.67998 | 46.29520 | 34851 ft | 451 kts | 30° |
| 2026-04-20 15:15 | 3.73339 | 46.32728 | 34853 ft | 451 kts | 30° |
| 2026-04-20 15:16 | 3.78714 | 46.35956 | 34847 ft | 451 kts | 30° |
| 2026-04-20 15:16 | 3.84093 | 46.39187 | 34849 ft | 450 kts | 30° |
| 2026-04-20 15:17 | 3.89449 | 46.42405 | 34846 ft | 449 kts | 30° |
| 2026-04-20 15:17 | 3.94823 | 46.45634 | 34848 ft | 450 kts | 30° |
| 2026-04-20 15:18 | 4.00201 | 46.48866 | 34840 ft | 450 kts | 30° |
| 2026-04-20 15:18 | 4.05536 | 46.52073 | 34846 ft | 450 kts | 30° |
| 2026-04-20 15:19 | 4.10910 | 46.55304 | 34839 ft | 450 kts | 30° |
| 2026-04-20 15:19 | 4.16279 | 46.58531 | 34844 ft | 450 kts | 30° |
| 2026-04-20 15:20 | 4.21635 | 46.61752 | 34837 ft | 449 kts | 30° |
| 2026-04-20 15:20 | 4.26999 | 46.64978 | 34837 ft | 449 kts | 30° |
| 2026-04-20 15:21 | 4.32366 | 46.68207 | 34843 ft | 449 kts | 30° |
| 2026-04-20 15:21 | 4.37688 | 46.71409 | 34838 ft | 449 kts | 30° |
| 2026-04-20 15:22 | 4.43055 | 46.74639 | 34842 ft | 449 kts | 30° |
| 2026-04-20 15:22 | 4.48425 | 46.77871 | 34838 ft | 449 kts | 30° |
| 2026-04-20 15:23 | 4.53777 | 46.81092 | 34836 ft | 449 kts | 30° |
| 2026-04-20 15:23 | 4.59138 | 46.84319 | 34840 ft | 449 kts | 30° |
| 2026-04-20 15:24 | 4.64458 | 46.87523 | 34840 ft | 449 kts | 30° |
| 2026-04-20 15:24 | 4.69827 | 46.90756 | 34837 ft | 449 kts | 30° |
| 2026-04-20 15:25 | 4.75179 | 46.93980 | 34840 ft | 449 kts | 30° |
| 2026-04-20 15:25 | 4.80530 | 46.97205 | 34842 ft | 448 kts | 30° |
| 2026-04-20 15:26 | 4.85876 | 47.00426 | 34840 ft | 448 kts | 30° |
| 2026-04-20 15:26 | 4.91186 | 47.03627 | 34840 ft | 448 kts | 30° |
| 2026-04-20 15:27 | 4.96529 | 47.06847 | 34843 ft | 448 kts | 30° |
| 2026-04-20 15:27 | 5.01858 | 47.10060 | 34843 ft | 448 kts | 30° |
| 2026-04-20 15:28 | 5.06302 | 47.12740 | 34837 ft | 448 kts | 30° |
| 2026-04-20 15:28 | 5.12507 | 47.16483 | 34846 ft | 447 kts | 30° |
| 2026-04-20 15:29 | 5.16978 | 47.19180 | 34846 ft | 447 kts | 30° |
| 2026-04-20 15:29 | 5.22276 | 47.22377 | 34844 ft | 447 kts | 30° |
| 2026-04-20 15:30 | 5.27603 | 47.25592 | 34846 ft | 447 kts | 30° |
| 2026-04-20 15:30 | 5.32928 | 47.28806 | 34846 ft | 447 kts | 30° |
| 2026-04-20 15:31 | 5.38249 | 47.32019 | 34850 ft | 446 kts | 30° |
| 2026-04-20 15:31 | 5.43565 | 47.35229 | 34849 ft | 446 kts | 30° |
| 2026-04-20 15:32 | 5.48876 | 47.38437 | 34848 ft | 446 kts | 30° |
| 2026-04-20 15:32 | 5.54190 | 47.41647 | 34846 ft | 445 kts | 30° |
| 2026-04-20 15:33 | 5.59489 | 47.44849 | 34846 ft | 445 kts | 30° |
| 2026-04-20 15:33 | 5.64796 | 47.48058 | 34843 ft | 445 kts | 30° |
| 2026-04-20 15:34 | 5.70044 | 47.51275 | 34843 ft | 445 kts | 30° |
| 2026-04-20 15:34 | 5.75343 | 47.54520 | 34841 ft | 445 kts | 30° |
| 2026-04-20 15:35 | 5.80621 | 47.57754 | 34848 ft | 445 kts | 30° |
| 2026-04-20 15:35 | 5.85904 | 47.60990 | 34843 ft | 445 kts | 30° |
| 2026-04-20 15:36 | 5.91181 | 47.64225 | 34842 ft | 444 kts | 30° |
| 2026-04-20 15:36 | 5.96429 | 47.67442 | 34845 ft | 445 kts | 30° |
| 2026-04-20 15:37 | 6.01709 | 47.70679 | 34847 ft | 444 kts | 30° |
| 2026-04-20 15:37 | 6.07002 | 47.73926 | 34848 ft | 445 kts | 30° |
| 2026-04-20 15:38 | 6.12282 | 47.77164 | 34846 ft | 445 kts | 30° |
| 2026-04-20 15:38 | 6.17534 | 47.80387 | 34848 ft | 444 kts | 30° |
| 2026-04-20 15:39 | 6.22815 | 47.83628 | 34845 ft | 445 kts | 30° |
| 2026-04-20 15:39 | 6.28099 | 47.86872 | 34846 ft | 445 kts | 30° |
| 2026-04-20 15:40 | 6.33371 | 47.90109 | 34846 ft | 445 kts | 30° |
| 2026-04-20 15:40 | 6.38651 | 47.93352 | 34847 ft | 445 kts | 30° |
| 2026-04-20 15:41 | 6.43941 | 47.96601 | 34847 ft | 445 kts | 30° |
| 2026-04-20 15:41 | 6.49226 | 47.99849 | 34850 ft | 445 kts | 30° |
| 2026-04-20 15:42 | 6.54500 | 48.03091 | 34848 ft | 445 kts | 30° |
| 2026-04-20 15:42 | 6.59787 | 48.06341 | 34848 ft | 445 kts | 30° |
| 2026-04-20 15:43 | 6.65044 | 48.09574 | 34853 ft | 445 kts | 30° |
| 2026-04-20 15:43 | 6.70327 | 48.12823 | 34854 ft | 445 kts | 30° |
| 2026-04-20 15:44 | 6.75603 | 48.16069 | 34854 ft | 445 kts | 30° |
| 2026-04-20 15:44 | 6.80892 | 48.19324 | 34855 ft | 445 kts | 30° |
| 2026-04-20 15:45 | 6.86175 | 48.22576 | 34856 ft | 445 kts | 30° |
| 2026-04-20 15:45 | 6.91453 | 48.25825 | 34855 ft | 445 kts | 30° |
| 2026-04-20 15:46 | 6.96735 | 48.29078 | 34859 ft | 445 kts | 30° |
| 2026-04-20 15:46 | 7.01991 | 48.32317 | 34861 ft | 445 kts | 30° |
| 2026-04-20 15:47 | 7.07280 | 48.35576 | 34864 ft | 445 kts | 30° |
| 2026-04-20 15:47 | 7.12564 | 48.38833 | 34868 ft | 445 kts | 30° |
| 2026-04-20 15:48 | 7.17838 | 48.42084 | 34868 ft | 445 kts | 30° |
| 2026-04-20 15:48 | 7.23113 | 48.45338 | 34868 ft | 445 kts | 30° |
| 2026-04-20 15:49 | 7.28396 | 48.48596 | 34873 ft | 445 kts | 30° |
| 2026-04-20 15:49 | 7.33672 | 48.51849 | 34876 ft | 445 kts | 29° |
| 2026-04-20 15:50 | 7.38940 | 48.55035 | 34876 ft | 445 kts | 29° |
| 2026-04-20 15:50 | 7.44242 | 48.58246 | 34881 ft | 445 kts | 29° |
| 2026-04-20 15:51 | 7.49545 | 48.61460 | 34882 ft | 445 kts | 29° |
| 2026-04-20 15:51 | 7.54850 | 48.64676 | 34884 ft | 445 kts | 29° |
| 2026-04-20 15:52 | 7.60151 | 48.67889 | 34889 ft | 445 kts | 29° |
| 2026-04-20 15:52 | 7.65457 | 48.71108 | 34892 ft | 445 kts | 29° |
| 2026-04-20 15:53 | 7.73410 | 48.75933 | 34894 ft | 445 kts | 29° |
| 2026-04-20 15:53 | 7.78684 | 48.79134 | 34898 ft | 445 kts | 29° |
| 2026-04-20 15:54 | 7.84024 | 48.82376 | 34902 ft | 445 kts | 29° |
| 2026-04-20 15:54 | 7.89297 | 48.85578 | 34901 ft | 445 kts | 29° |
| 2026-04-20 15:55 | 7.94613 | 48.88807 | 34899 ft | 445 kts | 29° |
| 2026-04-20 15:55 | 7.99910 | 48.92026 | 34901 ft | 445 kts | 29° |
| 2026-04-20 15:56 | 8.05226 | 48.95258 | 34895 ft | 445 kts | 28° |
| 2026-04-20 15:56 | 8.10545 | 48.98492 | 34895 ft | 446 kts | 28° |
| 2026-04-20 15:57 | 8.15823 | 49.01702 | 34893 ft | 446 kts | 28° |
| 2026-04-20 15:57 | 8.21134 | 49.04934 | 34893 ft | 446 kts | 28° |
| 2026-04-20 15:58 | 8.26444 | 49.08165 | 34886 ft | 445 kts | 29° |
| 2026-04-20 15:58 | 8.31756 | 49.11400 | 34886 ft | 445 kts | 28° |
| 2026-04-20 15:59 | 8.37066 | 49.14633 | 34886 ft | 446 kts | 28° |
| 2026-04-20 15:59 | 8.42378 | 49.17870 | 34882 ft | 446 kts | 28° |
| 2026-04-20 16:00 | 8.47648 | 49.21081 | 34889 ft | 446 kts | 28° |
| 2026-04-20 16:00 | 8.52956 | 49.24316 | 34896 ft | 446 kts | 28° |
| 2026-04-20 16:01 | 8.58267 | 49.27555 | 34897 ft | 446 kts | 28° |
| 2026-04-20 16:01 | 8.63579 | 49.30797 | 34898 ft | 446 kts | 28° |
| 2026-04-20 16:02 | 8.68887 | 49.34037 | 34898 ft | 446 kts | 28° |
| 2026-04-20 16:02 | 8.74207 | 49.37287 | 34903 ft | 446 kts | 28° |
| 2026-04-20 16:03 | 8.79525 | 49.40536 | 34908 ft | 446 kts | 28° |
| 2026-04-20 16:03 | 8.84843 | 49.43786 | 34912 ft | 446 kts | 28° |
| 2026-04-20 16:04 | 8.90129 | 49.47018 | 34908 ft | 446 kts | 28° |
| 2026-04-20 16:04 | 8.95444 | 49.50269 | 34910 ft | 446 kts | 28° |
| 2026-04-20 16:05 | 9.00765 | 49.53524 | 34912 ft | 446 kts | 28° |
| 2026-04-20 16:05 | 9.06076 | 49.56774 | 34912 ft | 446 kts | 28° |
| 2026-04-20 16:06 | 9.11390 | 49.60028 | 34911 ft | 446 kts | 28° |
| 2026-04-20 16:06 | 9.16664 | 49.63258 | 34912 ft | 446 kts | 28° |
| 2026-04-20 16:07 | 9.21979 | 49.66514 | 34913 ft | 446 kts | 28° |
| 2026-04-20 16:07 | 9.27305 | 49.69780 | 34914 ft | 446 kts | 28° |
| 2026-04-20 16:08 | 9.32609 | 49.73033 | 34917 ft | 446 kts | 28° |
| 2026-04-20 16:08 | 9.37922 | 49.76294 | 34921 ft | 446 kts | 28° |
| 2026-04-20 16:09 | 9.43214 | 49.79542 | 34920 ft | 446 kts | 28° |
| 2026-04-20 16:09 | 9.48524 | 49.82802 | 34918 ft | 446 kts | 28° |
| 2026-04-20 16:10 | 9.53831 | 49.86063 | 34927 ft | 446 kts | 28° |
| 2026-04-20 16:10 | 9.59136 | 49.89322 | 34927 ft | 446 kts | 28° |
| 2026-04-20 16:11 | 9.64404 | 49.92561 | 34927 ft | 446 kts | 28° |
| 2026-04-20 16:11 | 9.69713 | 49.95826 | 34925 ft | 446 kts | 28° |
| 2026-04-20 16:12 | 9.75022 | 49.99091 | 34925 ft | 446 kts | 28° |
| 2026-04-20 16:12 | 9.80325 | 50.02355 | 34925 ft | 446 kts | 28° |
| 2026-04-20 16:13 | 9.84733 | 50.05069 | 34922 ft | 446 kts | 28° |
| 2026-04-20 16:13 | 9.90900 | 50.08867 | 34920 ft | 445 kts | 28° |
| 2026-04-20 16:14 | 9.95334 | 50.11599 | 34924 ft | 446 kts | 28° |
| 2026-04-20 16:14 | 10.00637 | 50.14867 | 34920 ft | 446 kts | 28° |
| 2026-04-20 16:15 | 10.05907 | 50.18117 | 34920 ft | 446 kts | 28° |
| 2026-04-20 16:15 | 10.11213 | 50.21389 | 34916 ft | 445 kts | 28° |
| 2026-04-20 16:16 | 10.16499 | 50.24651 | 34919 ft | 445 kts | 28° |
| 2026-04-20 16:16 | 10.21789 | 50.27916 | 34916 ft | 445 kts | 28° |
| 2026-04-20 16:17 | 10.27052 | 50.31167 | 34914 ft | 445 kts | 28° |
| 2026-04-20 16:17 | 10.32343 | 50.34434 | 34915 ft | 445 kts | 28° |
| 2026-04-20 16:18 | 10.37607 | 50.37688 | 34916 ft | 445 kts | 28° |
| 2026-04-20 16:18 | 10.42893 | 50.40957 | 34916 ft | 445 kts | 28° |
| 2026-04-20 16:19 | 10.48189 | 50.44232 | 34920 ft | 445 kts | 28° |
| 2026-04-20 16:19 | 10.53452 | 50.47489 | 34926 ft | 445 kts | 27° |
| 2026-04-20 16:20 | 10.58742 | 50.50763 | 34921 ft | 445 kts | 27° |
| 2026-04-20 16:20 | 10.64032 | 50.54039 | 34930 ft | 445 kts | 27° |
| 2026-04-20 16:21 | 10.69325 | 50.57319 | 34929 ft | 445 kts | 27° |
| 2026-04-20 16:21 | 10.74583 | 50.60576 | 34926 ft | 445 kts | 27° |
| 2026-04-20 16:22 | 10.79873 | 50.63857 | 34932 ft | 445 kts | 27° |
| 2026-04-20 16:22 | 10.85174 | 50.67145 | 34924 ft | 445 kts | 27° |
| 2026-04-20 16:23 | 10.90432 | 50.70407 | 34928 ft | 445 kts | 27° |
| 2026-04-20 16:23 | 10.95720 | 50.73691 | 34927 ft | 445 kts | 27° |
| 2026-04-20 16:24 | 11.01005 | 50.76973 | 34932 ft | 445 kts | 27° |
| 2026-04-20 16:24 | 11.06256 | 50.80236 | 34930 ft | 445 kts | 27° |
| 2026-04-20 16:25 | 11.11543 | 50.83522 | 34932 ft | 445 kts | 27° |
| 2026-04-20 16:25 | 11.16837 | 50.86814 | 34934 ft | 445 kts | 27° |
| 2026-04-20 16:26 | 11.22095 | 50.90086 | 34929 ft | 445 kts | 27° |
| 2026-04-20 16:26 | 11.27401 | 50.93389 | 34932 ft | 445 kts | 27° |
| 2026-04-20 16:27 | 11.32684 | 50.96677 | 34936 ft | 445 kts | 27° |
| 2026-04-20 16:27 | 11.37973 | 50.99971 | 34927 ft | 445 kts | 27° |
| 2026-04-20 16:28 | 11.43229 | 51.03243 | 34930 ft | 446 kts | 27° |
| 2026-04-20 16:28 | 11.48517 | 51.06533 | 34922 ft | 445 kts | 27° |
| 2026-04-20 16:29 | 11.53808 | 51.09827 | 34916 ft | 445 kts | 27° |
| 2026-04-20 16:29 | 11.59071 | 51.13105 | 34907 ft | 445 kts | 27° |
| 2026-04-20 16:30 | 11.64356 | 51.16397 | 34912 ft | 446 kts | 27° |
| 2026-04-20 16:30 | 11.69646 | 51.19694 | 34907 ft | 445 kts | 27° |
| 2026-04-20 16:31 | 11.74938 | 51.22995 | 34913 ft | 445 kts | 27° |
| 2026-04-20 16:31 | 11.80225 | 51.26294 | 34903 ft | 446 kts | 27° |
| 2026-04-20 16:32 | 11.85513 | 51.29595 | 34905 ft | 446 kts | 27° |
| 2026-04-20 16:32 | 11.90804 | 51.32899 | 34902 ft | 446 kts | 27° |
| 2026-04-20 16:33 | 11.96059 | 51.36183 | 34902 ft | 444 kts | 27° |
| 2026-04-20 16:33 | 12.01313 | 51.39466 | 34896 ft | 442 kts | 27° |
| 2026-04-20 16:34 | 12.06566 | 51.42748 | 34899 ft | 443 kts | 27° |
| 2026-04-20 16:34 | 12.11823 | 51.46033 | 34900 ft | 443 kts | 27° |
| 2026-04-20 16:35 | 12.17053 | 51.49304 | 34898 ft | 443 kts | 27° |
| 2026-04-20 16:35 | 12.22314 | 51.52596 | 34898 ft | 443 kts | 27° |
| 2026-04-20 16:36 | 12.27539 | 51.55866 | 34900 ft | 442 kts | 27° |
| 2026-04-20 16:36 | 12.32803 | 51.59162 | 34901 ft | 442 kts | 27° |
| 2026-04-20 16:37 | 12.38057 | 51.62455 | 34905 ft | 442 kts | 27° |
| 2026-04-20 16:37 | 12.43277 | 51.65726 | 34903 ft | 442 kts | 27° |
| 2026-04-20 16:38 | 12.48524 | 51.69017 | 34903 ft | 442 kts | 27° |
| 2026-04-20 16:38 | 12.53781 | 51.72315 | 34903 ft | 442 kts | 27° |
| 2026-04-20 16:39 | 12.59031 | 51.75611 | 34903 ft | 442 kts | 27° |
| 2026-04-20 16:39 | 12.64242 | 51.78883 | 34903 ft | 442 kts | 27° |
| 2026-04-20 16:40 | 12.69483 | 51.82177 | 34908 ft | 442 kts | 27° |
| 2026-04-20 16:40 | 12.74720 | 51.85468 | 34907 ft | 442 kts | 27° |
| 2026-04-20 16:41 | 12.79959 | 51.88764 | 34905 ft | 442 kts | 27° |
| 2026-04-20 16:41 | 12.85204 | 51.92064 | 34908 ft | 442 kts | 27° |
| 2026-04-20 16:42 | 12.90448 | 51.95366 | 34905 ft | 442 kts | 27° |
| 2026-04-20 16:42 | 12.95651 | 51.98643 | 34906 ft | 442 kts | 27° |
| 2026-04-20 16:43 | 13.00896 | 52.01948 | 34911 ft | 442 kts | 27° |
| 2026-04-20 16:43 | 13.06146 | 52.05259 | 34914 ft | 442 kts | 27° |
| 2026-04-20 16:44 | 13.11404 | 52.08576 | 34909 ft | 442 kts | 27° |
| 2026-04-20 16:44 | 13.16604 | 52.11857 | 34908 ft | 442 kts | 27° |
| 2026-04-20 16:45 | 13.21847 | 52.15168 | 34908 ft | 442 kts | 27° |
| 2026-04-20 16:45 | 13.27100 | 52.18487 | 34909 ft | 443 kts | 27° |
| 2026-04-20 16:46 | 13.32321 | 52.21787 | 34911 ft | 442 kts | 27° |
| 2026-04-20 16:46 | 13.37559 | 52.25099 | 34912 ft | 443 kts | 27° |
| 2026-04-20 16:47 | 13.42810 | 52.28433 | 34914 ft | 443 kts | 27° |
| 2026-04-20 16:47 | 13.48036 | 52.31751 | 34909 ft | 443 kts | 27° |
| 2026-04-20 16:48 | 13.53277 | 52.35081 | 34908 ft | 443 kts | 27° |
| 2026-04-20 16:48 | 13.58522 | 52.38415 | 34909 ft | 443 kts | 27° |
| 2026-04-20 16:49 | 13.63772 | 52.41752 | 34911 ft | 443 kts | 27° |
| 2026-04-20 16:49 | 13.69012 | 52.45086 | 34912 ft | 444 kts | 26° |
| 2026-04-20 16:50 | 13.74265 | 52.48431 | 34909 ft | 444 kts | 26° |
| 2026-04-20 16:50 | 13.79511 | 52.51773 | 34910 ft | 444 kts | 26° |
| 2026-04-20 16:51 | 13.84770 | 52.55124 | 34910 ft | 444 kts | 26° |
| 2026-04-20 16:51 | 13.89988 | 52.58452 | 34912 ft | 444 kts | 26° |
| 2026-04-20 16:52 | 13.95242 | 52.61803 | 34911 ft | 444 kts | 26° |
| 2026-04-20 16:52 | 14.00498 | 52.65158 | 34912 ft | 444 kts | 26° |
| 2026-04-20 16:53 | 14.05754 | 52.68516 | 34914 ft | 445 kts | 26° |
| 2026-04-20 16:53 | 14.10989 | 52.71861 | 34914 ft | 445 kts | 26° |
| 2026-04-20 16:54 | 14.16279 | 52.75243 | 34912 ft | 445 kts | 26° |
| 2026-04-20 16:54 | 14.21500 | 52.78583 | 34906 ft | 445 kts | 26° |
| 2026-04-20 16:55 | 14.26753 | 52.81946 | 34911 ft | 445 kts | 26° |
| 2026-04-20 16:55 | 14.32011 | 52.85312 | 34916 ft | 445 kts | 26° |
| 2026-04-20 16:56 | 14.37271 | 52.88684 | 34912 ft | 445 kts | 26° |
| 2026-04-20 16:56 | 14.42524 | 52.92052 | 34911 ft | 445 kts | 26° |
| 2026-04-20 16:57 | 14.47793 | 52.95432 | 34908 ft | 445 kts | 26° |
| 2026-04-20 16:57 | 14.53021 | 52.98788 | 34909 ft | 445 kts | 26° |
| 2026-04-20 16:58 | 14.58281 | 53.02165 | 34913 ft | 445 kts | 26° |
| 2026-04-20 16:58 | 14.63537 | 53.05543 | 34918 ft | 445 kts | 26° |
| 2026-04-20 16:59 | 14.68806 | 53.08904 | 34911 ft | 445 kts | 26° |
| 2026-04-20 16:59 | 14.74053 | 53.12246 | 34912 ft | 445 kts | 26° |
| 2026-04-20 17:00 | 14.81960 | 53.17287 | 34913 ft | 445 kts | 26° |
| 2026-04-20 17:01 | 14.87232 | 53.20650 | 34911 ft | 445 kts | 26° |
| 2026-04-20 17:01 | 14.91611 | 53.23444 | 34909 ft | 445 kts | 26° |
| 2026-04-20 17:02 | 14.96880 | 53.26809 | 34917 ft | 445 kts | 26° |
| 2026-04-20 17:02 | 15.02144 | 53.30173 | 34912 ft | 445 kts | 26° |
| 2026-04-20 17:03 | 15.06779 | 53.33136 | 34911 ft | 445 kts | 26° |
| 2026-04-20 17:03 | 15.12018 | 53.36487 | 34910 ft | 445 kts | 26° |
| 2026-04-20 17:04 | 15.17286 | 53.39858 | 34906 ft | 445 kts | 26° |
| 2026-04-20 17:04 | 15.22560 | 53.43236 | 34907 ft | 445 kts | 26° |
| 2026-04-20 17:05 | 15.27823 | 53.46609 | 34909 ft | 445 kts | 26° |
| 2026-04-20 17:05 | 15.33093 | 53.49988 | 34905 ft | 445 kts | 26° |
| 2026-04-20 17:06 | 15.38367 | 53.53372 | 34903 ft | 445 kts | 26° |
| 2026-04-20 17:06 | 15.43601 | 53.56752 | 34903 ft | 446 kts | 26° |
| 2026-04-20 17:07 | 15.48814 | 53.60231 | 34899 ft | 446 kts | 26° |
| 2026-04-20 17:07 | 15.54042 | 53.63711 | 34903 ft | 446 kts | 26° |
| 2026-04-20 17:08 | 15.59237 | 53.67170 | 34907 ft | 446 kts | 26° |
| 2026-04-20 17:08 | 15.64468 | 53.70655 | 34900 ft | 446 kts | 26° |
| 2026-04-20 17:09 | 15.69682 | 53.74132 | 34899 ft | 446 kts | 26° |
| 2026-04-20 17:09 | 15.74913 | 53.77620 | 34894 ft | 446 kts | 26° |
| 2026-04-20 17:10 | 15.80101 | 53.81083 | 34896 ft | 446 kts | 26° |
| 2026-04-20 17:10 | 15.85328 | 53.84575 | 34903 ft | 446 kts | 26° |
| 2026-04-20 17:11 | 15.90557 | 53.88035 | 34903 ft | 445 kts | 26° |
| 2026-04-20 17:11 | 15.95792 | 53.91486 | 34899 ft | 446 kts | 26° |
| 2026-04-20 17:12 | 16.01000 | 53.94924 | 34901 ft | 446 kts | 26° |
| 2026-04-20 17:12 | 16.06241 | 53.98386 | 34897 ft | 446 kts | 26° |
| 2026-04-20 17:13 | 16.11473 | 54.01843 | 34903 ft | 445 kts | 26° |
| 2026-04-20 17:13 | 16.16708 | 54.05305 | 34894 ft | 445 kts | 26° |
| 2026-04-20 17:14 | 16.21916 | 54.08751 | 34891 ft | 445 kts | 26° |
| 2026-04-20 17:14 | 16.27147 | 54.12215 | 34898 ft | 445 kts | 26° |
| 2026-04-20 17:15 | 16.32363 | 54.15671 | 34886 ft | 444 kts | 26° |
| 2026-04-20 17:15 | 16.37549 | 54.19110 | 34889 ft | 444 kts | 26° |
| 2026-04-20 17:16 | 16.42770 | 54.22573 | 34880 ft | 444 kts | 26° |
| 2026-04-20 17:16 | 16.47988 | 54.26037 | 34887 ft | 444 kts | 26° |
| 2026-04-20 17:17 | 16.53197 | 54.29498 | 34872 ft | 444 kts | 26° |
| 2026-04-20 17:17 | 16.58378 | 54.32942 | 34873 ft | 444 kts | 26° |
| 2026-04-20 17:18 | 16.63599 | 54.36414 | 34874 ft | 444 kts | 25° |
| 2026-04-20 17:18 | 16.68813 | 54.39885 | 34868 ft | 444 kts | 25° |
| 2026-04-20 17:19 | 16.73986 | 54.43330 | 34869 ft | 444 kts | 25° |
| 2026-04-20 17:19 | 16.79193 | 54.46800 | 34884 ft | 444 kts | 25° |
| 2026-04-20 17:20 | 16.84408 | 54.50278 | 34889 ft | 444 kts | 25° |
| 2026-04-20 17:20 | 16.89613 | 54.53751 | 34881 ft | 443 kts | 25° |
| 2026-04-20 17:21 | 16.94800 | 54.57212 | 34908 ft | 443 kts | 25° |
| 2026-04-20 17:21 | 17.00000 | 54.60683 | 34905 ft | 443 kts | 25° |
| 2026-04-20 17:22 | 17.05164 | 54.64135 | 34912 ft | 443 kts | 25° |
| 2026-04-20 17:22 | 17.10368 | 54.67614 | 34897 ft | 443 kts | 25° |
| 2026-04-20 17:23 | 17.15553 | 54.71083 | 34913 ft | 443 kts | 25° |
| 2026-04-20 17:23 | 17.20755 | 54.74566 | 34912 ft | 443 kts | 25° |
| 2026-04-20 17:24 | 17.25924 | 54.78030 | 34918 ft | 443 kts | 26° |
| 2026-04-20 17:24 | 17.30968 | 54.81819 | 34910 ft | 446 kts | 28° |
| 2026-04-20 17:25 | 17.36011 | 54.85607 | 34912 ft | 446 kts | 28° |
| 2026-04-20 17:25 | 17.41018 | 54.89361 | 34904 ft | 445 kts | 28° |
| 2026-04-20 17:26 | 17.46068 | 54.93151 | 34902 ft | 445 kts | 28° |
| 2026-04-20 17:26 | 17.51077 | 54.96911 | 34900 ft | 445 kts | 28° |
| 2026-04-20 17:27 | 17.56108 | 55.00691 | 34895 ft | 446 kts | 28° |
| 2026-04-20 17:27 | 17.61159 | 55.04489 | 34892 ft | 444 kts | 28° |
| 2026-04-20 17:28 | 17.66145 | 55.08240 | 34883 ft | 444 kts | 28° |
| 2026-04-20 17:28 | 17.71168 | 55.12022 | 34880 ft | 444 kts | 28° |
| 2026-04-20 17:29 | 17.76189 | 55.15808 | 34879 ft | 444 kts | 28° |
| 2026-04-20 17:29 | 17.81170 | 55.19577 | 34863 ft | 444 kts | 28° |
| 2026-04-20 17:30 | 17.86189 | 55.23376 | 34871 ft | 444 kts | 28° |
| 2026-04-20 17:30 | 17.91202 | 55.27174 | 34876 ft | 444 kts | 28° |
| 2026-04-20 17:31 | 17.96197 | 55.30960 | 34867 ft | 445 kts | 28° |
| 2026-04-20 17:31 | 18.01225 | 55.34775 | 34857 ft | 446 kts | 28° |
| 2026-04-20 17:32 | 18.06226 | 55.38571 | 34870 ft | 446 kts | 28° |
| 2026-04-20 17:32 | 18.11363 | 55.42185 | 34872 ft | 443 kts | 25° |
| 2026-04-20 17:33 | 18.16526 | 55.45723 | 34866 ft | 443 kts | 26° |
| 2026-04-20 17:33 | 18.21683 | 55.49272 | 34869 ft | 443 kts | 26° |
| 2026-04-20 17:34 | 18.26813 | 55.52806 | 34866 ft | 443 kts | 26° |
| 2026-04-20 17:34 | 18.31971 | 55.56363 | 34858 ft | 442 kts | 26° |
| 2026-04-20 17:35 | 18.37111 | 55.59891 | 34864 ft | 442 kts | 25° |
| 2026-04-20 17:35 | 18.42263 | 55.63427 | 34861 ft | 442 kts | 25° |
| 2026-04-20 17:36 | 18.47431 | 55.66977 | 34861 ft | 442 kts | 25° |
| 2026-04-20 17:36 | 18.52560 | 55.70502 | 34861 ft | 442 kts | 25° |
| 2026-04-20 17:37 | 18.57709 | 55.74044 | 34859 ft | 442 kts | 25° |
| 2026-04-20 17:37 | 18.62865 | 55.77594 | 34860 ft | 442 kts | 25° |
| 2026-04-20 17:38 | 18.68022 | 55.81146 | 34858 ft | 441 kts | 26° |
| 2026-04-20 17:38 | 18.73162 | 55.84690 | 34857 ft | 441 kts | 26° |
| 2026-04-20 17:39 | 18.78263 | 55.88209 | 34853 ft | 441 kts | 26° |
| 2026-04-20 17:39 | 18.83402 | 55.91757 | 34853 ft | 441 kts | 26° |
| 2026-04-20 17:40 | 18.88509 | 55.95286 | 34854 ft | 441 kts | 26° |
| 2026-04-20 17:40 | 18.93653 | 55.98842 | 34859 ft | 440 kts | 25° |
| 2026-04-20 17:41 | 18.99023 | 56.01548 | 34862 ft | 418 kts | 7° |
| 2026-04-20 17:41 | 19.04657 | 56.03158 | 34838 ft | 421 kts | 8° |
| 2026-04-20 17:42 | 19.10339 | 56.04714 | 34843 ft | 421 kts | 8° |
| 2026-04-20 17:42 | 19.15993 | 56.06233 | 34840 ft | 421 kts | 8° |
| 2026-04-20 17:43 | 19.21672 | 56.07757 | 34854 ft | 421 kts | 7° |
| 2026-04-20 17:43 | 19.27365 | 56.09285 | 34841 ft | 422 kts | 7° |
| 2026-04-20 17:44 | 19.33016 | 56.10803 | 34829 ft | 422 kts | 7° |
| 2026-04-20 17:44 | 19.38713 | 56.12335 | 34832 ft | 422 kts | 7° |
| 2026-04-20 17:45 | 19.44419 | 56.13870 | 34830 ft | 422 kts | 7° |
| 2026-04-20 17:45 | 19.50084 | 56.15395 | 34829 ft | 422 kts | 7° |
| 2026-04-20 17:46 | 19.55776 | 56.16928 | 34829 ft | 422 kts | 7° |
| 2026-04-20 17:46 | 19.61476 | 56.18465 | 34827 ft | 423 kts | 7° |
| 2026-04-20 17:47 | 19.67179 | 56.20004 | 34819 ft | 423 kts | 7° |
| 2026-04-20 17:47 | 19.72888 | 56.21545 | 34820 ft | 423 kts | 7° |
| 2026-04-20 17:48 | 19.78550 | 56.23075 | 34815 ft | 423 kts | 7° |
| 2026-04-20 17:48 | 19.83299 | 56.24360 | 34816 ft | 423 kts | 7° |
| 2026-04-20 17:49 | 19.89004 | 56.25903 | 34816 ft | 423 kts | 8° |
| 2026-04-20 17:49 | 19.95657 | 56.27699 | 34816 ft | 423 kts | 6° |
| 2026-04-20 17:49 | 19.98535 | 56.28018 | 34812 ft | 410 kts | 354° |
| 2026-04-20 17:50 | 20.00435 | 56.28018 | 34822 ft | 413 kts | 355° |
| 2026-04-20 17:50 | 20.06191 | 56.28083 | 34818 ft | 413 kts | 355° |
| 2026-04-20 17:51 | 20.11938 | 56.28110 | 34821 ft | 413 kts | 355° |
| 2026-04-20 17:51 | 20.17660 | 56.28128 | 34816 ft | 413 kts | 355° |
| 2026-04-20 17:52 | 20.23416 | 56.28143 | 34813 ft | 413 kts | 354° |
| 2026-04-20 17:52 | 20.29128 | 56.28157 | 34812 ft | 413 kts | 354° |
| 2026-04-20 17:53 | 20.34883 | 56.28171 | 34812 ft | 413 kts | 355° |
| 2026-04-20 17:53 | 20.40630 | 56.28185 | 34824 ft | 412 kts | 354° |
| 2026-04-20 17:54 | 20.46333 | 56.28199 | 34819 ft | 411 kts | 354° |
| 2026-04-20 17:54 | 20.52051 | 56.28213 | 34818 ft | 411 kts | 354° |
| 2026-04-20 17:55 | 20.57743 | 56.27892 | 34827 ft | 406 kts | 348° |
| 2026-04-20 17:55 | 20.63326 | 56.27104 | 34821 ft | 406 kts | 348° |
| 2026-04-20 17:56 | 20.68948 | 56.26293 | 34826 ft | 406 kts | 348° |
| 2026-04-20 17:56 | 20.74542 | 56.25483 | 34822 ft | 406 kts | 348° |
| 2026-04-20 17:57 | 20.80111 | 56.24677 | 34823 ft | 406 kts | 348° |
| 2026-04-20 17:57 | 20.85715 | 56.23864 | 34825 ft | 406 kts | 348° |
| 2026-04-20 17:58 | 20.91336 | 56.23048 | 34823 ft | 406 kts | 348° |
| 2026-04-20 17:58 | 20.96920 | 56.22237 | 34825 ft | 407 kts | 348° |
| 2026-04-20 17:59 | 21.02542 | 56.21420 | 34824 ft | 408 kts | 348° |
| 2026-04-20 17:59 | 21.08163 | 56.20602 | 34825 ft | 408 kts | 348° |
| 2026-04-20 18:00 | 21.13757 | 56.19788 | 34825 ft | 407 kts | 348° |
| 2026-04-20 18:00 | 21.19390 | 56.18968 | 34833 ft | 407 kts | 348° |
| 2026-04-20 18:01 | 21.25024 | 56.18147 | 34831 ft | 410 kts | 348° |
| 2026-04-20 18:01 | 21.30688 | 56.17317 | 34830 ft | 410 kts | 348° |
| 2026-04-20 18:02 | 21.36323 | 56.16491 | 34829 ft | 410 kts | 348° |
| 2026-04-20 18:02 | 21.41980 | 56.15661 | 34831 ft | 410 kts | 348° |
| 2026-04-20 18:03 | 21.47621 | 56.14833 | 34831 ft | 410 kts | 348° |
| 2026-04-20 18:03 | 21.53279 | 56.14001 | 34832 ft | 410 kts | 348° |
| 2026-04-20 18:04 | 21.58936 | 56.13169 | 34830 ft | 410 kts | 348° |
| 2026-04-20 18:04 | 21.64612 | 56.12335 | 34832 ft | 410 kts | 348° |
| 2026-04-20 18:05 | 21.73067 | 56.11089 | 34844 ft | 410 kts | 348° |
| 2026-04-20 18:05 | 21.78753 | 56.10250 | 34841 ft | 413 kts | 348° |
| 2026-04-20 18:06 | 21.84449 | 56.09409 | 34839 ft | 413 kts | 348° |
| 2026-04-20 18:06 | 21.90148 | 56.08568 | 34838 ft | 413 kts | 348° |
| 2026-04-20 18:07 | 21.95808 | 56.07731 | 34835 ft | 413 kts | 348° |
| 2026-04-20 18:07 | 22.01510 | 56.06887 | 34843 ft | 414 kts | 348° |
| 2026-04-20 18:08 | 22.07242 | 56.06040 | 34841 ft | 416 kts | 348° |
| 2026-04-20 18:08 | 22.12986 | 56.05190 | 34840 ft | 416 kts | 348° |
| 2026-04-20 18:09 | 22.18684 | 56.04346 | 34840 ft | 416 kts | 348° |
| 2026-04-20 18:09 | 22.24420 | 56.03495 | 34840 ft | 416 kts | 348° |
| 2026-04-20 18:10 | 22.30162 | 56.02643 | 34845 ft | 417 kts | 348° |
| 2026-04-20 18:10 | 22.35923 | 56.01788 | 34846 ft | 418 kts | 348° |
| 2026-04-20 18:11 | 22.41661 | 56.00941 | 34847 ft | 418 kts | 348° |
| 2026-04-20 18:11 | 22.47411 | 56.00092 | 34848 ft | 418 kts | 348° |
| 2026-04-20 18:12 | 22.53173 | 55.99240 | 34845 ft | 418 kts | 348° |
| 2026-04-20 18:12 | 22.58946 | 55.98387 | 34847 ft | 419 kts | 348° |
| 2026-04-20 18:13 | 22.64728 | 55.97531 | 34849 ft | 419 kts | 348° |
| 2026-04-20 18:13 | 22.70500 | 55.96676 | 34851 ft | 419 kts | 348° |
| 2026-04-20 18:14 | 22.76265 | 55.95821 | 34846 ft | 419 kts | 348° |
| 2026-04-20 18:14 | 22.82011 | 55.94966 | 34853 ft | 420 kts | 348° |
| 2026-04-20 18:15 | 22.87809 | 55.94100 | 34853 ft | 421 kts | 348° |
| 2026-04-20 18:15 | 22.93613 | 55.93232 | 34851 ft | 421 kts | 348° |
| 2026-04-20 18:16 | 22.99408 | 55.92364 | 34854 ft | 421 kts | 348° |
| 2026-04-20 18:16 | 23.05221 | 55.91492 | 34859 ft | 421 kts | 348° |
| 2026-04-20 18:17 | 23.11046 | 55.90614 | 34861 ft | 423 kts | 348° |
| 2026-04-20 18:17 | 23.16840 | 55.89741 | 34857 ft | 423 kts | 348° |
| 2026-04-20 18:18 | 23.22673 | 55.88861 | 34857 ft | 423 kts | 348° |
| 2026-04-20 18:18 | 23.28502 | 55.87981 | 34855 ft | 423 kts | 348° |
| 2026-04-20 18:19 | 23.34321 | 55.87101 | 34859 ft | 426 kts | 348° |
| 2026-04-20 18:19 | 23.40209 | 55.86211 | 34861 ft | 426 kts | 348° |
| 2026-04-20 18:20 | 23.46074 | 55.85323 | 34860 ft | 426 kts | 348° |
| 2026-04-20 18:20 | 23.48969 | 55.84885 | 34816 ft | 413 kts | 348° |
| 2026-04-20 18:20 | 23.51784 | 55.84459 | 34531 ft | 405 kts | 348° |
| 2026-04-20 18:21 | 23.54570 | 55.84037 | 34022 ft | 404 kts | 348° |
| 2026-04-20 18:21 | 23.57359 | 55.83617 | 33442 ft | 404 kts | 348° |
| 2026-04-20 18:21 | 23.60138 | 55.83187 | 32930 ft | 401 kts | 348° |
| 2026-04-20 18:21 | 23.62892 | 55.82770 | 32475 ft | 398 kts | 348° |
| 2026-04-20 18:22 | 23.65621 | 55.82355 | 32032 ft | 395 kts | 348° |
| 2026-04-20 18:22 | 23.68334 | 55.81942 | 31574 ft | 393 kts | 349° |
| 2026-04-20 18:22 | 23.71071 | 55.81765 | 31065 ft | 396 kts | 1° |
| 2026-04-20 18:22 | 23.73771 | 55.82077 | 30598 ft | 395 kts | 1° |
| 2026-04-20 18:23 | 23.76508 | 55.82343 | 30168 ft | 393 kts | 1° |
| 2026-04-20 18:23 | 23.79219 | 55.82618 | 29705 ft | 391 kts | 2° |
| 2026-04-20 18:23 | 23.81920 | 55.82897 | 29228 ft | 389 kts | 2° |
| 2026-04-20 18:23 | 23.84619 | 55.83178 | 28769 ft | 387 kts | 1° |
| 2026-04-20 18:24 | 23.87282 | 55.83456 | 28342 ft | 384 kts | 1° |
| 2026-04-20 18:24 | 23.89932 | 55.83733 | 27926 ft | 381 kts | 1° |
| 2026-04-20 18:24 | 23.92565 | 55.84008 | 27514 ft | 379 kts | 1° |
| 2026-04-20 18:24 | 23.95179 | 55.84281 | 27102 ft | 376 kts | 1° |
| 2026-04-20 18:25 | 23.97777 | 55.84553 | 26697 ft | 374 kts | 1° |
| 2026-04-20 18:25 | 24.00368 | 55.84825 | 26291 ft | 372 kts | 1° |
| 2026-04-20 18:25 | 24.02908 | 55.85091 | 25908 ft | 371 kts | 1° |
| 2026-04-20 18:25 | 24.05504 | 55.85362 | 25512 ft | 369 kts | 1° |
| 2026-04-20 18:26 | 24.08028 | 55.85627 | 25129 ft | 368 kts | 1° |
| 2026-04-20 18:26 | 24.10572 | 55.85894 | 24755 ft | 366 kts | 1° |
| 2026-04-20 18:26 | 24.13098 | 55.86159 | 24370 ft | 365 kts | 1° |
| 2026-04-20 18:26 | 24.15627 | 55.86424 | 23995 ft | 364 kts | 1° |
| 2026-04-20 18:27 | 24.18150 | 55.86689 | 23624 ft | 363 kts | 1° |
| 2026-04-20 18:27 | 24.20672 | 55.86954 | 23208 ft | 363 kts | 1° |
| 2026-04-20 18:27 | 24.23175 | 55.87217 | 22797 ft | 361 kts | 1° |
| 2026-04-20 18:27 | 24.25663 | 55.87479 | 22418 ft | 359 kts | 1° |
| 2026-04-20 18:28 | 24.28110 | 55.87736 | 22055 ft | 356 kts | 2° |
| 2026-04-20 18:28 | 24.30567 | 55.88068 | 21737 ft | 356 kts | 6° |
| 2026-04-20 18:28 | 24.33020 | 55.88496 | 21446 ft | 358 kts | 5° |
| 2026-04-20 18:28 | 24.35478 | 55.88936 | 21166 ft | 358 kts | 9° |
| 2026-04-20 18:29 | 24.37793 | 55.89967 | 20780 ft | 364 kts | 31° |
| 2026-04-20 18:29 | 24.39750 | 55.91733 | 20486 ft | 363 kts | 39° |
| 2026-04-20 18:29 | 24.41629 | 55.93561 | 20180 ft | 362 kts | 39° |
| 2026-04-20 18:29 | 24.43507 | 55.95405 | 19860 ft | 361 kts | 39° |
| 2026-04-20 18:30 | 24.45356 | 55.97238 | 19526 ft | 359 kts | 40° |
| 2026-04-20 18:30 | 24.47204 | 55.99077 | 19218 ft | 357 kts | 40° |
| 2026-04-20 18:30 | 24.49031 | 56.00900 | 18899 ft | 354 kts | 40° |
| 2026-04-20 18:30 | 24.50849 | 56.02715 | 18573 ft | 351 kts | 40° |
| 2026-04-20 18:31 | 24.52652 | 56.04517 | 18280 ft | 349 kts | 40° |
| 2026-04-20 18:31 | 24.54445 | 56.06313 | 17887 ft | 348 kts | 40° |
| 2026-04-20 18:31 | 24.56224 | 56.08096 | 17559 ft | 344 kts | 40° |
| 2026-04-20 18:31 | 24.57956 | 56.09840 | 17264 ft | 340 kts | 40° |
| 2026-04-20 18:32 | 24.59774 | 56.11465 | 16899 ft | 334 kts | 27° |
| 2026-04-20 18:32 | 24.61919 | 56.12325 | 16629 ft | 324 kts | 9° |
| 2026-04-20 18:32 | 24.64132 | 56.12805 | 16442 ft | 325 kts | 9° |
| 2026-04-20 18:32 | 24.66348 | 56.13258 | 16206 ft | 324 kts | 8° |
| 2026-04-20 18:33 | 24.68556 | 56.13688 | 15928 ft | 321 kts | 7° |
| 2026-04-20 18:33 | 24.70757 | 56.14103 | 15653 ft | 317 kts | 7° |
| 2026-04-20 18:33 | 24.72918 | 56.14506 | 15364 ft | 314 kts | 7° |
| 2026-04-20 18:33 | 24.75069 | 56.14904 | 15095 ft | 313 kts | 7° |
| 2026-04-20 18:34 | 24.77213 | 56.15299 | 14819 ft | 311 kts | 7° |
| 2026-04-20 18:34 | 24.79356 | 56.15398 | 14472 ft | 306 kts | 348° |
| 2026-04-20 18:34 | 24.81331 | 56.14638 | 14246 ft | 300 kts | 336° |
| 2026-04-20 18:34 | 24.83229 | 56.13740 | 14000 ft | 301 kts | 336° |
| 2026-04-20 18:35 | 24.85145 | 56.12822 | 13719 ft | 299 kts | 336° |
| 2026-04-20 18:35 | 24.86428 | 56.12201 | 13514 ft | 297 kts | 336° |
| 2026-04-20 18:35 | 24.88305 | 56.11287 | 13217 ft | 293 kts | 336° |
| 2026-04-20 18:35 | 24.90156 | 56.10379 | 12954 ft | 289 kts | 336° |
| 2026-04-20 18:36 | 24.91960 | 56.09493 | 12698 ft | 285 kts | 336° |
| 2026-04-20 18:36 | 24.93732 | 56.08543 | 12365 ft | 284 kts | 327° |
| 2026-04-20 18:36 | 24.95146 | 56.07005 | 11808 ft | 292 kts | 304° |
| 2026-04-20 18:36 | 24.95984 | 56.04931 | 11288 ft | 301 kts | 291° |
| 2026-04-20 18:37 | 24.96699 | 56.02761 | 10901 ft | 301 kts | 293° |
| 2026-04-20 18:37 | 24.97434 | 56.00596 | 10454 ft | 304 kts | 293° |
| 2026-04-20 18:37 | 24.98198 | 55.98378 | 9870 ft | 312 kts | 293° |
| 2026-04-20 18:37 | 24.98980 | 55.96120 | 9297 ft | 317 kts | 293° |
| 2026-04-20 18:38 | 24.99760 | 55.93868 | 8851 ft | 318 kts | 293° |
| 2026-04-20 18:38 | 25.00545 | 55.91597 | 8504 ft | 315 kts | 293° |
| 2026-04-20 18:38 | 25.01320 | 55.89354 | 8166 ft | 311 kts | 293° |
| 2026-04-20 18:38 | 25.02089 | 55.87126 | 7836 ft | 309 kts | 293° |
| 2026-04-20 18:39 | 25.02844 | 55.84936 | 7599 ft | 303 kts | 293° |
| 2026-04-20 18:39 | 25.03581 | 55.82797 | 7466 ft | 293 kts | 293° |
| 2026-04-20 18:39 | 25.04291 | 55.80732 | 7350 ft | 283 kts | 293° |
| 2026-04-20 18:39 | 25.04980 | 55.78732 | 7205 ft | 275 kts | 293° |
| 2026-04-20 18:40 | 25.05657 | 55.76766 | 6894 ft | 274 kts | 293° |
| 2026-04-20 18:40 | 25.06333 | 55.74807 | 6592 ft | 273 kts | 293° |
| 2026-04-20 18:40 | 25.07008 | 55.72850 | 6300 ft | 271 kts | 293° |
| 2026-04-20 18:40 | 25.07670 | 55.70928 | 5982 ft | 271 kts | 293° |
| 2026-04-20 18:41 | 25.08261 | 55.68928 | 5655 ft | 271 kts | 290° |
| 2026-04-20 18:41 | 25.08897 | 55.66985 | 5343 ft | 269 kts | 295° |
| 2026-04-20 18:41 | 25.09661 | 55.65136 | 5033 ft | 268 kts | 298° |
| 2026-04-20 18:41 | 25.10523 | 55.63318 | 4720 ft | 266 kts | 300° |
| 2026-04-20 18:42 | 25.11448 | 55.61515 | 4375 ft | 267 kts | 302° |
| 2026-04-20 18:42 | 25.12386 | 55.59765 | 4068 ft | 264 kts | 302° |
| 2026-04-20 18:42 | 25.13328 | 55.58042 | 3731 ft | 258 kts | 302° |
| 2026-04-20 18:42 | 25.14244 | 55.56379 | 3394 ft | 250 kts | 302° |
| 2026-04-20 18:43 | 25.15126 | 55.54784 | 3074 ft | 242 kts | 302° |
| 2026-04-20 18:43 | 25.16002 | 55.53201 | 2760 ft | 235 kts | 302° |
| 2026-04-20 18:43 | 25.16843 | 55.51686 | 2462 ft | 229 kts | 302° |
| 2026-04-20 18:43 | 25.17662 | 55.50209 | 2182 ft | 222 kts | 302° |
| 2026-04-20 18:44 | 25.18454 | 55.48776 | 1900 ft | 216 kts | 302° |
| 2026-04-20 18:44 | 25.19212 | 55.47407 | 1636 ft | 199 kts | 302° |
| 2026-04-20 18:44 | 25.19894 | 55.46176 | 1385 ft | 182 kts | 302° |
| 2026-04-20 18:44 | 25.20519 | 55.45047 | 1163 ft | 163 kts | 302° |
| 2026-04-20 18:45 | 25.21086 | 55.44025 | 997 ft | 154 kts | 302° |
| 2026-04-20 18:45 | 25.21645 | 55.43015 | 793 ft | 154 kts | 302° |
| 2026-04-20 18:45 | 25.22202 | 55.42007 | 584 ft | 154 kts | 302° |
| 2026-04-20 18:45 | 25.22756 | 55.40995 | 379 ft | 154 kts | 301° |
| 2026-04-20 18:46 | 25.23313 | 55.39988 | 180 ft | 154 kts | 301° |
| 2026-04-20 18:46 | 25.23867 | 55.38993 | 28 ft | 144 kts | 301° |
| 2026-04-20 18:46 | 25.24283 | 55.38240 | 29 ft | 91 kts | 302° |
| 2026-04-20 18:46 | 25.24561 | 55.37741 | 25 ft | 70 kts | 301° |
| 2026-04-20 18:47 | 25.24805 | 55.37300 | 26 ft | 60 kts | 301° |
| 2026-04-20 18:47 | 25.24963 | 55.37003 | 27 ft | 35 kts | 299° |
| 2026-04-20 18:47 | 25.25022 | 55.36753 | 24 ft | 28 kts | 272° |
| 2026-04-20 18:47 | 25.25024 | 55.36621 | 25 ft | 12 kts | 270° |
| 2026-04-20 18:48 | 25.24986 | 55.36557 | 24 ft | 11 kts | 193° |
| 2026-04-20 18:48 | 25.24926 | 55.36603 | 25 ft | 12 kts | 125° |
| 2026-04-20 18:48 | 25.24883 | 55.36694 | 24 ft | 14 kts | 109° |
| 2026-04-20 18:48 | 25.24860 | 55.36808 | 26 ft | 16 kts | 100° |
| 2026-04-20 18:49 | 25.24821 | 55.36916 | 24 ft | 12 kts | 120° |
| 2026-04-20 18:49 | 25.24777 | 55.36956 | 25 ft | 8 kts | 186° |
| 2026-04-20 18:49 | 25.24720 | 55.36926 | 24 ft | 10 kts | 207° |
| 2026-04-20 18:49 | 25.24650 | 55.36880 | 23 ft | 12 kts | 211° |
| 2026-04-20 18:50 | 25.24593 | 55.36842 | 23 ft | 9 kts | 212° |
| 2026-04-20 18:50 | 25.24538 | 55.36804 | 23 ft | 9 kts | 211° |
| 2026-04-20 18:50 | 25.24506 | 55.36783 | 24 ft | 2 kts | 211° |
| 2026-04-20 18:50 | 25.24474 | 55.36762 | 23 ft | 10 kts | 211° |
| 2026-04-20 18:51 | 25.24400 | 55.36678 | 26 ft | 20 kts | 242° |
| 2026-04-20 18:51 | 25.24373 | 55.36522 | 23 ft | 21 kts | 277° |
| 2026-04-20 18:51 | 25.24432 | 55.36382 | 25 ft | 21 kts | 302° |
| 2026-04-20 18:51 | 25.24513 | 55.36239 | 24 ft | 23 kts | 302° |
| 2026-04-20 18:52 | 25.24600 | 55.36085 | 24 ft | 25 kts | 302° |
| 2026-04-20 18:52 | 25.24694 | 55.35918 | 26 ft | 26 kts | 302° |
| 2026-04-20 18:52 | 25.24795 | 55.35739 | 23 ft | 28 kts | 302° |
| 2026-04-20 18:52 | 25.24911 | 55.35557 | 26 ft | 30 kts | 303° |
| 2026-04-20 18:53 | 25.25013 | 55.35374 | 25 ft | 28 kts | 301° |
| 2026-04-20 18:53 | 25.25120 | 55.35197 | 24 ft | 27 kts | 307° |
| 2026-04-20 18:53 | 25.25227 | 55.35020 | 26 ft | 28 kts | 301° |
| 2026-04-20 18:53 | 25.25336 | 55.34852 | 24 ft | 23 kts | 323° |
| 2026-04-20 18:54 | 25.25475 | 55.34822 | 25 ft | 20 kts | 13° |
| 2026-04-20 18:54 | 25.25606 | 55.34898 | 24 ft | 22 kts | 31° |
| 2026-04-20 18:54 | 25.25736 | 55.34985 | 25 ft | 20 kts | 31° |
| 2026-04-20 18:54 | 25.25819 | 55.35001 | 24 ft | 12 kts | 320° |
| 2026-04-20 18:55 | 25.25870 | 55.34920 | 26 ft | 14 kts | 301° |
| 2026-04-20 18:55 | 25.25927 | 55.34819 | 24 ft | 16 kts | 302° |
| 2026-04-20 18:55 | 25.25991 | 55.34705 | 24 ft | 19 kts | 302° |
| 2026-04-20 18:55 | 25.26064 | 55.34576 | 25 ft | 21 kts | 302° |
| 2026-04-20 18:56 | 25.26137 | 55.34446 | 26 ft | 20 kts | 301° |
| 2026-04-20 18:56 | 25.26175 | 55.34391 | 25 ft | 5 kts | 342° |
| 2026-04-20 18:56 | 25.26210 | 55.34406 | 24 ft | 7 kts | 31° |
| 2026-04-20 18:56 | 25.26250 | 55.34432 | 24 ft | 5 kts | 31° |
| 2026-04-20 18:57 | 25.26255 | 55.34436 | 24 ft | 0 kts | 31° |